Terminal Aerodrome Forecast
Issued by NWS Tallahassee, FL

Home | Current Version | Previous Version | Text Only | Print | Product List | Glossary On
Versions: 1 2 3 4 5 6 7 8 9 10 11 12 13 14 15 16
000
FTUS42 KTAE 172300
TAFTLH
TAF
KTLH 172338Z 1800/1824 08010KT P6SM BKN020
     FM180200 08010KT 5SM RA OVC018
     FM180800 07013G20KT 2SM +RA OVC006
     FM181900 14014G22KT 2SM +TSRA OVC010CB=

USA.gov is the U.S. government's official web portal to all federal, state and local government web resources and services.